createdAt,value
2019-05-12T00:06:03.970Z,8.08
2019-05-12T00:16:45.956Z,8.03
2019-05-12T00:27:28.443Z,7.85
2019-05-12T00:38:09.535Z,7.74
2019-05-12T00:48:51.886Z,7.59
2019-05-12T00:59:35.168Z,7.48
2019-05-12T01:10:17.999Z,7.39
2019-05-12T01:21:01.080Z,7.27
2019-05-12T01:31:39.091Z,7.08
2019-05-12T01:42:22.186Z,6.84
2019-05-12T01:53:07.921Z,6.66
2019-05-12T02:03:49.200Z,6.59
2019-05-12T02:14:33.339Z,6.71
2019-05-12T02:25:11.699Z,6.81
2019-05-12T02:35:49.328Z,6.83
2019-05-12T02:46:34.811Z,6.69
2019-05-12T02:57:15.309Z,6.58
2019-05-12T03:07:58.145Z,6.43
2019-05-12T03:18:39.875Z,6.30
2019-05-12T03:29:25.061Z,6.10
2019-05-12T03:40:05.557Z,5.83
2019-05-12T03:50:48.217Z,5.68
2019-05-12T04:01:30.183Z,5.50
2019-05-12T04:12:14.909Z,5.42
2019-05-12T04:22:56.189Z,5.42
2019-05-12T04:33:39.367Z,5.43
2019-05-12T04:44:25.147Z,5.49
2019-05-12T04:55:07.093Z,5.63
2019-05-12T05:05:54.962Z,5.84
2019-05-12T05:16:37.227Z,6.10
2019-05-12T05:27:20.060Z,6.38
2019-05-12T05:38:04.302Z,6.73
2019-05-12T05:48:40.380Z,7.76
2019-05-12T05:59:31.490Z,7.50
2019-05-12T06:10:05.371Z,7.55
2019-05-12T06:20:48.341Z,7.65
2019-05-12T06:31:30.003Z,7.67
2019-05-12T06:42:16.826Z,7.76
2019-05-12T06:52:55.466Z,7.93
2019-05-12T07:03:40.788Z,8.25
2019-05-12T07:14:23.232Z,8.58
2019-05-12T07:24:58.289Z,8.93
2019-05-12T07:35:39.277Z,9.18
2019-05-12T07:46:27.538Z,9.46
2019-05-12T07:57:12.082Z,9.57
2019-05-12T08:07:50.590Z,9.40
2019-05-12T08:18:41.017Z,9.55
2019-05-12T08:29:21.342Z,9.82
2019-05-12T08:40:05.306Z,10.21
2019-05-12T08:50:46.135Z,10.19
2019-05-12T09:01:26.565Z,10.70
2019-05-12T09:12:03.539Z,10.75
2019-05-12T09:22:39.109Z,10.66
2019-05-12T09:33:21.345Z,10.62
2019-05-12T09:44:03.930Z,11.01
2019-05-12T09:54:46.300Z,11.48
2019-05-12T10:05:30.414Z,11.05
2019-05-12T10:16:09.629Z,11.71
2019-05-12T10:26:50.697Z,12.07
2019-05-12T10:37:29.638Z,12.40
2019-05-12T10:48:13.928Z,12.34
2019-05-12T10:58:50.222Z,12.49
2019-05-12T11:09:32.305Z,13.16
2019-05-12T11:20:14.164Z,13.00
2019-05-12T11:30:54.428Z,13.44
2019-05-12T11:41:33.414Z,13.38
2019-05-12T11:52:19.465Z,13.32
2019-05-12T12:03:03.034Z,13.33
2019-05-12T12:13:40.243Z,13.80
2019-05-12T12:24:30.035Z,14.03
2019-05-12T12:35:11.866Z,14.86
2019-05-12T12:45:51.244Z,15.69
2019-05-12T12:56:34.074Z,15.22
2019-05-12T13:07:14.356Z,15.25
2019-05-12T13:17:58.580Z,15.15
2019-05-12T13:28:39.372Z,15.11
2019-05-12T13:39:16.672Z,15.86
2019-05-12T13:49:58.351Z,14.75
2019-05-12T14:00:41.510Z,15.29
2019-05-12T14:11:28.035Z,15.36
2019-05-12T14:21:48.753Z,14.85
2019-05-12T14:32:19.158Z,15.08
2019-05-12T14:42:54.485Z,14.86
2019-05-12T14:53:38.406Z,15.24
2019-05-12T15:04:08.685Z,14.20
2019-05-12T15:14:48.675Z,14.51
2019-05-12T15:25:19.598Z,14.23
2019-05-12T15:35:57.596Z,13.90
2019-05-12T15:46:43.450Z,13.92
2019-05-12T15:57:24.698Z,13.80
2019-05-12T16:08:06.501Z,13.76
2019-05-12T16:18:50.560Z,13.92
2019-05-12T16:29:33.331Z,13.90
2019-05-12T16:40:15.955Z,13.69
2019-05-12T16:50:55.645Z,13.88
2019-05-12T17:01:38.501Z,13.94
2019-05-12T17:12:23.927Z,13.97
2019-05-12T17:23:03.806Z,14.02
2019-05-12T17:33:44.604Z,13.72
2019-05-12T17:44:31.347Z,13.51
2019-05-12T17:55:14.485Z,13.27
2019-05-12T18:05:57.940Z,13.24
2019-05-12T18:16:43.377Z,13.30
2019-05-12T18:27:20.837Z,13.17
2019-05-12T18:38:08.036Z,13.09
2019-05-12T18:48:43.523Z,12.85
2019-05-12T18:59:28.043Z,12.76
2019-05-12T19:10:06.644Z,12.56
2019-05-12T19:20:49.658Z,12.29
2019-05-12T19:31:36.750Z,12.12
2019-05-12T19:42:20.208Z,12.03
2019-05-12T19:52:54.555Z,11.78
2019-05-12T20:03:38.012Z,11.48
2019-05-12T20:14:21.110Z,11.05
2019-05-12T20:24:48.257Z,10.54
2019-05-12T20:35:27.549Z,10.05
2019-05-12T20:46:03.643Z,9.68
2019-05-12T20:56:39.550Z,9.15
2019-05-12T21:07:22.112Z,8.84
2019-05-12T21:18:02.675Z,8.63
2019-05-12T21:28:37.135Z,8.24
2019-05-12T21:39:10.626Z,7.97
2019-05-12T21:49:55.074Z,7.65
2019-05-12T22:00:23.801Z,7.37
2019-05-12T22:11:09.615Z,7.08
2019-05-12T22:21:44.485Z,6.95
2019-05-12T22:32:19.008Z,6.81
2019-05-12T22:43:01.295Z,6.59
2019-05-12T22:53:34.601Z,6.44
2019-05-12T23:04:14.332Z,6.16
2019-05-12T23:15:02.819Z,6.16
2019-05-12T23:25:44.085Z,6.09
2019-05-12T23:36:35.278Z,5.96
2019-05-12T23:47:04.400Z,5.90
2019-05-12T23:57:44.741Z,5.72
